Cushman, Montana
Current Conditions -  °F | °C
As of 12:35 PM on Tuesday 21 Oct 2014 (Local Time) from KMVH Reporting Station
Scattered Clouds Scattered Clouds  
Wind Chill: 68°   Ceiling: Unl
Heat Index: 68°   Visibility: 10mi
Dew Point: 39°   Wind: 17mph
Humidity: 35%   Direction: 230°SW
Pressure: 29.71"   Gusts: 24mph
Location:  46.4448°N, 109.102°W
Report Text: KMVH 211835Z AUTO 23015G21KT 10SM SCT110 20/04 A2971 RMK A01
Loading
Personal Weather Stations






























Interactive Weather Map
Tropical Storm Tracking
New forecast layout! Learn more

10-Day Weather Forecast

Advertisements
Track Severe Weather on mobile